Creola, Ohio
Current Conditions -  °F | °C
As of 8:15 PM on Friday 24 Oct 2014 (Local Time) from KUNI Reporting Station
Clear Clear  
Wind Chill: 47°   Ceiling: Unl
Heat Index: 47°   Visibility: 10mi
Dew Point: 39°   Wind: 0mph
Humidity: 73%   Direction: NA
Pressure: 30.04"   Gusts: NA
Location:  39.32°N, 82.47°W
Report Text: KUNI 250015Z AUTO 00000KT 10SM CLR 09/04 A3004 RMK AO2 T00860040
Loading
Personal Weather Stations






























Interactive Weather Map
Tropical Storm Tracking
New forecast layout! Learn more

10-Day Weather Forecast

Advertisements
Track Severe Weather on mobile